createdAt,value
2023-01-09T00:00:32.994Z,2.10
2023-01-09T00:01:32.968Z,2.10
2023-01-09T00:02:33.003Z,2.20
2023-01-09T00:03:33.012Z,2.30
2023-01-09T00:04:32.941Z,2.40
2023-01-09T00:05:32.924Z,2.10
2023-01-09T00:06:32.917Z,2.20
2023-01-09T00:07:32.896Z,2.00
2023-01-09T00:08:32.916Z,2.40
2023-01-09T00:09:32.913Z,2.20
2023-01-09T00:10:32.876Z,2.20
2023-01-09T00:11:32.862Z,2.10
2023-01-09T00:12:32.846Z,2.10
2023-01-09T00:13:32.884Z,1.90
2023-01-09T00:14:32.832Z,2.10
2023-01-09T00:15:32.818Z,2.00
2023-01-09T00:16:32.892Z,2.20
2023-01-09T00:17:32.839Z,2.20
2023-01-09T00:18:32.800Z,2.10
2023-01-09T00:19:32.795Z,2.30
2023-01-09T00:20:32.779Z,2.00
2023-01-09T00:21:32.743Z,2.30
2023-01-09T00:22:32.746Z,2.00
2023-01-09T00:23:32.760Z,2.10
2023-01-09T00:24:32.761Z,2.20
2023-01-09T00:25:32.718Z,2.50
2023-01-09T00:26:32.717Z,2.20
2023-01-09T00:27:32.704Z,2.30
2023-01-09T00:28:32.733Z,2.00
2023-01-09T00:29:32.676Z,2.40
2023-01-09T00:30:32.733Z,2.10
2023-01-09T00:31:32.639Z,2.40
2023-01-09T00:32:33.641Z,2.60
2023-01-09T00:33:32.637Z,2.40
2023-01-09T00:34:32.607Z,2.40
2023-01-09T00:35:32.607Z,2.20
2023-01-09T00:36:32.597Z,1.80
2023-01-09T00:37:32.587Z,1.60
2023-01-09T00:38:32.598Z,1.70
2023-01-09T00:39:32.564Z,1.80
2023-01-09T00:40:32.552Z,1.70
2023-01-09T00:41:32.548Z,1.80
2023-01-09T00:42:32.577Z,1.80
2023-01-09T00:43:32.546Z,2.00
2023-01-09T00:44:32.523Z,1.70
2023-01-09T00:45:32.533Z,1.90
2023-01-09T00:46:32.468Z,1.70
2023-01-09T00:47:32.517Z,1.60
2023-01-09T00:48:32.507Z,1.80
2023-01-09T00:49:32.473Z,2.30
2023-01-09T00:50:32.452Z,2.00
2023-01-09T00:51:32.450Z,2.00
2023-01-09T00:52:32.500Z,1.90
2023-01-09T00:53:32.469Z,1.90
2023-01-09T00:54:32.423Z,1.80
2023-01-09T00:55:32.408Z,1.90
2023-01-09T00:56:32.400Z,2.10
2023-01-09T00:57:32.379Z,2.30
2023-01-09T00:58:32.418Z,2.10
2023-01-09T00:59:32.372Z,2.60
2023-01-09T01:00:32.345Z,3.20
2023-01-09T01:01:32.539Z,2.80
2023-01-09T01:02:32.436Z,2.90
2023-01-09T01:03:33.367Z,2.80
2023-01-09T01:04:32.319Z,3.00
2023-01-09T01:05:32.304Z,3.30
2023-01-09T01:06:32.287Z,3.40
2023-01-09T01:07:32.289Z,3.50
2023-01-09T01:08:32.285Z,3.20
2023-01-09T01:09:32.249Z,3.20
2023-01-09T01:10:32.254Z,3.00
2023-01-09T01:11:32.281Z,3.60
2023-01-09T01:12:32.233Z,3.40
2023-01-09T01:13:32.232Z,3.60
2023-01-09T01:14:32.196Z,3.60
2023-01-09T01:15:32.213Z,3.80
2023-01-09T01:16:32.199Z,3.80
2023-01-09T01:17:32.177Z,3.90
2023-01-09T01:18:32.180Z,3.90
2023-01-09T01:19:32.165Z,3.70
2023-01-09T01:20:32.160Z,3.90
2023-01-09T01:21:32.118Z,4.40
2023-01-09T01:22:32.139Z,4.40
2023-01-09T01:23:32.149Z,4.30
2023-01-09T01:24:32.151Z,4.60
2023-01-09T01:25:32.103Z,4.60
2023-01-09T01:26:32.104Z,4.40
2023-01-09T01:27:32.070Z,4.50
2023-01-09T01:28:32.070Z,4.50
2023-01-09T01:29:32.052Z,4.90
2023-01-09T01:30:32.069Z,4.60
2023-01-09T01:31:32.065Z,4.70
2023-01-09T01:32:32.024Z,4.70
2023-01-09T01:33:32.011Z,4.70
2023-01-09T01:34:31.987Z,4.50
2023-01-09T01:35:31.989Z,4.70
2023-01-09T01:36:31.974Z,4.90
2023-01-09T01:37:32.007Z,4.20
2023-01-09T01:38:31.947Z,4.90
2023-01-09T01:39:31.977Z,4.70
2023-01-09T01:40:31.973Z,4.70
2023-01-09T01:41:31.935Z,4.40
2023-01-09T01:42:31.977Z,4.30
2023-01-09T01:43:31.931Z,4.20
2023-01-09T01:44:31.898Z,4.60
2023-01-09T01:45:31.875Z,4.20
2023-01-09T01:46:31.880Z,3.90
2023-01-09T01:47:31.875Z,4.00
2023-01-09T01:48:31.882Z,3.70
2023-01-09T01:49:31.862Z,3.60
2023-01-09T01:50:31.881Z,4.10
2023-01-09T01:51:31.852Z,3.80
2023-01-09T01:52:31.827Z,3.80
2023-01-09T01:53:31.815Z,3.60
2023-01-09T01:54:31.800Z,3.20
2023-01-09T01:55:31.815Z,3.40
2023-01-09T01:56:31.771Z,3.40
2023-01-09T01:57:31.769Z,3.70
2023-01-09T01:58:32.765Z,3.80
2023-01-09T01:59:31.745Z,3.50
2023-01-09T02:00:31.755Z,3.60
2023-01-09T02:01:31.792Z,3.80
2023-01-09T02:02:31.801Z,3.90
2023-01-09T02:03:31.771Z,3.50
2023-01-09T02:04:31.708Z,3.60
2023-01-09T02:05:31.688Z,3.50
2023-01-09T02:06:31.669Z,3.20
2023-01-09T02:07:31.655Z,2.90
2023-01-09T02:08:31.620Z,2.90
2023-01-09T02:09:31.644Z,2.90
2023-01-09T02:10:31.627Z,2.20
2023-01-09T02:11:31.620Z,2.40
2023-01-09T02:12:31.613Z,2.20
2023-01-09T02:13:31.593Z,2.90
2023-01-09T02:14:31.602Z,2.70
2023-01-09T02:15:31.577Z,2.30
2023-01-09T02:16:31.566Z,2.90
2023-01-09T02:17:31.570Z,3.00
2023-01-09T02:18:31.570Z,2.50
2023-01-09T02:19:31.553Z,2.60
2023-01-09T02:20:31.525Z,2.90
2023-01-09T02:21:31.526Z,2.70
2023-01-09T02:22:31.508Z,2.40
2023-01-09T02:23:31.502Z,2.70
2023-01-09T02:24:31.488Z,2.80
2023-01-09T02:25:31.492Z,2.60
2023-01-09T02:26:31.468Z,2.90
2023-01-09T02:27:31.460Z,2.40
2023-01-09T02:28:31.445Z,2.40
2023-01-09T02:29:31.463Z,2.70
2023-01-09T02:30:31.421Z,2.90
2023-01-09T02:31:31.460Z,2.60
2023-01-09T02:32:31.444Z,2.30
2023-01-09T02:33:31.403Z,2.50
2023-01-09T02:34:31.392Z,2.50
2023-01-09T02:35:31.372Z,2.90
2023-01-09T02:36:31.359Z,2.60
2023-01-09T02:37:31.370Z,2.60
2023-01-09T02:38:31.333Z,2.70
2023-01-09T02:39:31.353Z,2.10
2023-01-09T02:40:31.329Z,2.50
2023-01-09T02:41:31.321Z,2.10
2023-01-09T02:42:31.310Z,2.00
2023-01-09T02:43:31.285Z,2.30
2023-01-09T02:44:31.281Z,2.30
2023-01-09T02:45:31.325Z,2.30
2023-01-09T02:46:31.251Z,2.20
2023-01-09T02:47:31.242Z,2.70
2023-01-09T02:48:31.261Z,2.30
2023-01-09T02:49:31.241Z,2.40
2023-01-09T02:50:31.259Z,2.80
2023-01-09T02:51:31.216Z,2.60
2023-01-09T02:52:31.203Z,2.50
2023-01-09T02:53:31.191Z,2.60
2023-01-09T02:54:31.199Z,2.50
2023-01-09T02:55:31.166Z,2.30
2023-01-09T02:56:31.160Z,2.50
2023-01-09T02:57:31.147Z,2.70
2023-01-09T02:58:31.142Z,2.90
2023-01-09T02:59:31.146Z,2.30
2023-01-09T03:00:31.107Z,3.10
2023-01-09T03:01:31.148Z,2.80
2023-01-09T03:02:31.191Z,2.50
2023-01-09T03:03:31.101Z,2.50
2023-01-09T03:04:31.090Z,2.90
2023-01-09T03:05:31.063Z,2.90
2023-01-09T03:06:31.072Z,2.70
2023-01-09T03:07:31.061Z,2.50
2023-01-09T03:08:31.025Z,2.30
2023-01-09T03:09:31.054Z,2.70
2023-01-09T03:10:31.033Z,2.50
2023-01-09T03:11:31.001Z,2.90
2023-01-09T03:12:31.006Z,2.70
2023-01-09T03:13:31.014Z,2.90
2023-01-09T03:14:30.965Z,2.60
2023-01-09T03:15:30.970Z,2.50
2023-01-09T03:16:30.980Z,2.60
2023-01-09T03:17:30.964Z,2.50
2023-01-09T03:18:30.943Z,3.10
2023-01-09T03:19:30.959Z,2.20
2023-01-09T03:20:30.914Z,2.50
2023-01-09T03:21:30.897Z,2.40
2023-01-09T03:22:30.912Z,2.50
2023-01-09T03:23:30.905Z,2.50
2023-01-09T03:24:30.896Z,2.50
2023-01-09T03:25:30.875Z,2.40
2023-01-09T03:26:30.830Z,2.80
2023-01-09T03:27:30.873Z,2.60
2023-01-09T03:28:30.817Z,2.90
2023-01-09T03:29:30.829Z,2.60
2023-01-09T03:30:30.818Z,2.80
2023-01-09T03:31:30.815Z,2.60
2023-01-09T03:32:30.794Z,2.60
2023-01-09T03:33:30.789Z,2.90
2023-01-09T03:34:30.819Z,2.60
2023-01-09T03:35:30.765Z,2.60
2023-01-09T03:36:30.761Z,3.10
2023-01-09T03:37:30.762Z,2.60
2023-01-09T03:38:30.761Z,2.70
2023-01-09T03:39:30.768Z,3.00
2023-01-09T03:40:30.724Z,3.40
2023-01-09T03:41:30.680Z,4.00
2023-01-09T03:42:30.680Z,3.30
2023-01-09T03:43:30.691Z,4.00
2023-01-09T03:44:30.675Z,3.60
2023-01-09T03:45:30.717Z,3.40
2023-01-09T03:46:30.710Z,3.40
2023-01-09T03:47:30.626Z,3.90
2023-01-09T03:48:30.631Z,3.90
2023-01-09T03:49:30.621Z,4.00
2023-01-09T03:50:30.634Z,3.80
2023-01-09T03:51:30.605Z,3.80
2023-01-09T03:52:30.591Z,3.80
2023-01-09T03:53:30.598Z,3.50
2023-01-09T03:54:30.586Z,3.90
2023-01-09T03:55:30.557Z,4.00
2023-01-09T03:56:30.557Z,3.70
2023-01-09T03:57:30.534Z,3.50
2023-01-09T03:58:30.533Z,3.50
2023-01-09T03:59:30.567Z,3.50
2023-01-09T04:00:30.517Z,3.30
2023-01-09T04:01:30.661Z,4.30
2023-01-09T04:02:30.500Z,4.10
2023-01-09T04:03:30.582Z,3.70
2023-01-09T04:04:31.097Z,3.90
2023-01-09T04:05:31.479Z,3.80
2023-01-09T04:06:30.466Z,4.00
2023-01-09T04:07:30.435Z,3.90
2023-01-09T04:08:30.439Z,4.00
2023-01-09T04:09:30.417Z,3.90
2023-01-09T04:10:30.454Z,3.80
2023-01-09T04:11:30.406Z,4.20
2023-01-09T04:12:30.424Z,4.20
2023-01-09T04:13:30.406Z,3.90
2023-01-09T04:14:30.393Z,3.70
2023-01-09T04:15:30.392Z,4.10
2023-01-09T04:16:30.403Z,3.70
2023-01-09T04:17:30.335Z,4.10
2023-01-09T04:18:30.340Z,4.30
2023-01-09T04:19:30.365Z,3.60
2023-01-09T04:20:30.334Z,3.70
2023-01-09T04:21:30.306Z,4.20
2023-01-09T04:22:30.293Z,3.80
2023-01-09T04:23:30.273Z,3.70
2023-01-09T04:24:30.266Z,3.90
2023-01-09T04:25:30.282Z,4.40
2023-01-09T04:26:30.254Z,4.00
2023-01-09T04:27:30.263Z,4.40
2023-01-09T04:28:30.213Z,4.20
2023-01-09T04:29:30.202Z,4.40
2023-01-09T04:30:30.237Z,4.30
2023-01-09T04:31:30.281Z,4.40
2023-01-09T04:32:30.177Z,4.20
2023-01-09T04:33:30.179Z,4.40
2023-01-09T04:34:30.162Z,4.20
2023-01-09T04:35:30.179Z,4.10
2023-01-09T04:36:30.149Z,4.20
2023-01-09T04:37:30.144Z,4.10
2023-01-09T04:38:30.100Z,3.60
2023-01-09T04:39:30.121Z,3.70
2023-01-09T04:40:30.146Z,4.00
2023-01-09T04:41:30.099Z,3.50
2023-01-09T04:42:30.069Z,3.40
2023-01-09T04:43:30.093Z,3.30
2023-01-09T04:44:30.058Z,3.20
2023-01-09T04:45:30.151Z,3.30
2023-01-09T04:46:30.059Z,2.90
2023-01-09T04:47:30.037Z,3.00
2023-01-09T04:48:30.056Z,2.80
2023-01-09T04:49:30.027Z,3.10
2023-01-09T04:50:31.446Z,2.90
2023-01-09T04:51:31.011Z,3.10
2023-01-09T04:52:29.998Z,3.00
2023-01-09T04:53:29.958Z,3.30
2023-01-09T04:54:29.962Z,3.10
2023-01-09T04:55:29.990Z,2.80
2023-01-09T04:56:29.943Z,3.40
2023-01-09T04:57:29.937Z,3.40
2023-01-09T04:58:29.918Z,3.20
2023-01-09T04:59:29.907Z,2.80
2023-01-09T05:00:29.912Z,3.40
2023-01-09T05:01:29.978Z,2.70
2023-01-09T05:02:29.870Z,2.50
2023-01-09T05:03:29.856Z,2.40
2023-01-09T05:04:29.915Z,2.20
2023-01-09T05:05:29.846Z,2.60
2023-01-09T05:06:29.832Z,2.40
2023-01-09T05:07:29.825Z,2.70
2023-01-09T05:08:29.832Z,2.40
2023-01-09T05:09:29.814Z,2.10
2023-01-09T05:10:29.821Z,2.20
2023-01-09T05:11:29.799Z,2.30
2023-01-09T05:12:29.786Z,2.20
2023-01-09T05:13:29.767Z,2.40
2023-01-09T05:14:29.797Z,1.70
2023-01-09T05:15:29.755Z,1.30
2023-01-09T05:16:29.819Z,1.60
2023-01-09T05:17:29.705Z,1.60
2023-01-09T05:18:29.715Z,1.90
2023-01-09T05:19:29.728Z,1.80
2023-01-09T05:20:29.736Z,1.20
2023-01-09T05:21:29.711Z,1.20
2023-01-09T05:22:29.680Z,1.10
2023-01-09T05:23:29.680Z,1.10
2023-01-09T05:24:29.676Z,1.30
2023-01-09T05:25:29.664Z,0.80
2023-01-09T05:26:29.649Z,0.70
2023-01-09T05:27:29.625Z,0.80
2023-01-09T05:28:29.630Z,0.70
2023-01-09T05:29:29.621Z,0.70
2023-01-09T05:30:29.629Z,0.70
2023-01-09T05:31:29.636Z,0.50
2023-01-09T05:32:29.616Z,2.00
2023-01-09T05:33:29.580Z,1.40
2023-01-09T05:34:29.571Z,0.90
2023-01-09T05:35:29.578Z,1.10
2023-01-09T05:36:29.544Z,0.70
2023-01-09T05:37:29.563Z,0.50
2023-01-09T05:38:29.546Z,0.80
2023-01-09T05:39:29.533Z,0.70
2023-01-09T05:40:39.574Z,0.70
2023-01-09T05:41:31.495Z,0.70
2023-01-09T05:42:29.501Z,0.60
2023-01-09T05:43:29.483Z,0.50
2023-01-09T05:44:29.456Z,0.50
2023-01-09T05:45:29.533Z,0.70
2023-01-09T05:46:29.453Z,0.80
2023-01-09T05:47:29.423Z,0.70
2023-01-09T05:48:29.431Z,0.80
2023-01-09T05:49:29.416Z,0.70
2023-01-09T05:50:29.427Z,0.80
2023-01-09T05:51:30.408Z,0.90
2023-01-09T05:52:29.391Z,0.80
2023-01-09T05:53:29.385Z,1.10
2023-01-09T05:54:29.371Z,1.40
2023-01-09T05:55:29.336Z,1.20
2023-01-09T05:56:29.355Z,1.40
2023-01-09T05:57:29.351Z,1.20
2023-01-09T05:58:29.332Z,1.40
2023-01-09T05:59:29.326Z,1.10
2023-01-09T06:00:29.300Z,1.20
2023-01-09T06:01:29.365Z,1.30
2023-01-09T06:02:29.386Z,1.20
2023-01-09T06:03:29.314Z,0.70
2023-01-09T06:04:29.236Z,1.10
2023-01-09T06:05:29.249Z,1.00
2023-01-09T06:06:29.228Z,1.00
2023-01-09T06:07:29.236Z,0.90
2023-01-09T06:08:29.273Z,2.10
2023-01-09T06:09:29.209Z,0.70
2023-01-09T06:10:29.204Z,0.90
2023-01-09T06:11:29.204Z,0.60
2023-01-09T06:16:00.116Z,0.90
2023-01-09T06:17:00.048Z,0.90
2023-01-09T06:19:27.216Z,1.10
2023-01-09T06:20:27.292Z,0.90
2023-01-09T06:22:59.905Z,0.90
2023-01-09T06:23:59.881Z,0.90
2023-01-09T06:26:26.763Z,0.90
2023-01-09T06:27:26.705Z,0.70
2023-01-09T06:29:36.371Z,0.90
2023-01-09T06:30:34.449Z,0.90
2023-01-09T06:33:06.843Z,0.90
2023-01-09T06:34:06.895Z,0.80
2023-01-09T06:35:06.928Z,0.90
2023-01-09T06:37:41.144Z,1.10
2023-01-09T06:38:41.099Z,1.20
2023-01-09T06:40:44.875Z,0.80
2023-01-09T06:43:19.318Z,0.80
2023-01-09T06:44:19.157Z,0.70
2023-01-09T06:45:19.333Z,1.00
2023-01-09T06:47:47.180Z,0.70
2023-01-09T06:48:47.187Z,0.80
2023-01-09T06:49:49.699Z,1.00
2023-01-09T06:52:15.643Z,2.00
2023-01-09T06:53:15.566Z,1.10
2023-01-09T06:56:04.675Z,1.10
2023-01-09T06:56:58.419Z,1.30
2023-01-09T06:58:00.173Z,1.50
2023-01-09T06:58:58.365Z,1.10
2023-01-09T07:01:35.378Z,1.20
2023-01-09T07:02:34.695Z,1.20
2023-01-09T07:03:45.931Z,1.20
2023-01-09T07:04:34.626Z,1.10
2023-01-09T07:05:35.124Z,1.80
2023-01-09T07:06:35.377Z,1.80
2023-01-09T07:09:12.375Z,1.20
2023-01-09T07:10:12.431Z,1.00
2023-01-09T07:11:12.457Z,1.20
2023-01-09T07:12:12.378Z,1.30
2023-01-09T07:13:12.427Z,1.10
2023-01-09T07:14:13.700Z,1.10
2023-01-09T07:15:14.715Z,1.50
2023-01-09T07:17:39.041Z,1.70
2023-01-09T07:18:39.000Z,1.80
2023-01-09T07:19:39.019Z,2.00
2023-01-09T07:20:39.059Z,1.50
2023-01-09T07:21:39.042Z,2.10
2023-01-09T07:22:39.034Z,1.50
2023-01-09T07:25:05.770Z,1.30
2023-01-09T07:26:05.786Z,1.20
2023-01-09T07:27:05.740Z,1.90
2023-01-09T07:28:05.750Z,1.30
2023-01-09T07:29:05.884Z,1.40
2023-01-09T07:31:32.639Z,1.00
2023-01-09T07:32:32.570Z,0.70
2023-01-09T07:35:31.914Z,1.70
2023-01-09T07:36:31.970Z,0.80
2023-01-09T07:37:31.924Z,1.00
2023-01-09T07:39:59.160Z,0.80
2023-01-09T07:40:59.048Z,0.90
2023-01-09T14:14:09.838Z,0.70
2023-01-09T14:15:09.809Z,1.10
2023-01-09T14:16:09.831Z,1.20
2023-01-09T14:17:09.778Z,1.00
2023-01-09T14:18:09.787Z,0.90
2023-01-09T14:19:09.764Z,0.80
2023-01-09T14:20:09.759Z,0.70
2023-01-09T14:21:09.738Z,1.00
2023-01-09T14:22:09.741Z,0.90
2023-01-09T14:23:50.200Z,0.80
2023-01-09T14:24:10.706Z,0.90
2023-01-09T14:25:09.776Z,1.00
2023-01-09T14:26:09.686Z,0.80
2023-01-09T14:27:09.681Z,1.00
2023-01-09T14:28:09.677Z,1.00
2023-01-09T14:29:09.653Z,0.90
2023-01-09T14:30:09.672Z,1.20
2023-01-09T14:31:09.638Z,0.70
2023-01-09T14:32:09.625Z,0.90
2023-01-09T14:33:09.616Z,1.00
2023-01-09T14:34:23.218Z,0.90
2023-01-09T14:35:10.620Z,1.00
2023-01-09T14:36:09.582Z,0.80
2023-01-09T14:37:09.683Z,0.90
2023-01-09T14:38:09.563Z,0.80
2023-01-09T14:39:09.555Z,0.80
2023-01-09T14:40:09.600Z,0.90
2023-01-09T14:41:09.529Z,0.80
2023-01-09T14:42:09.518Z,1.00
2023-01-09T14:43:09.525Z,0.60
2023-01-09T14:44:09.507Z,0.70
2023-01-09T14:45:09.501Z,0.80
2023-01-09T14:46:09.673Z,1.00
2023-01-09T14:47:09.468Z,0.80
2023-01-09T14:48:09.458Z,0.80
2023-01-09T14:49:09.464Z,0.90
2023-01-09T14:50:09.586Z,0.80
2023-01-09T14:51:09.425Z,0.80
2023-01-09T14:52:09.420Z,0.80
2023-01-09T14:53:09.410Z,0.60
2023-01-09T14:54:09.402Z,0.90
2023-01-09T14:55:09.531Z,0.90
2023-01-09T14:56:09.443Z,0.90
2023-01-09T14:57:09.364Z,0.70
2023-01-09T14:58:09.384Z,0.80
2023-01-09T14:59:09.346Z,0.80
2023-01-09T15:00:09.468Z,0.80
2023-01-09T15:01:09.380Z,0.60
2023-01-09T15:02:09.412Z,0.80
2023-01-09T15:03:09.323Z,0.80
2023-01-09T15:04:09.295Z,0.90
2023-01-09T15:05:09.388Z,0.80
2023-01-09T15:06:09.289Z,0.90
2023-01-09T15:07:09.301Z,0.70
2023-01-09T15:08:09.268Z,0.80
2023-01-09T15:09:09.304Z,0.90
2023-01-09T15:10:09.335Z,0.60
2023-01-09T15:11:09.233Z,0.60
2023-01-09T15:12:09.208Z,0.70
2023-01-09T15:13:09.196Z,0.60
2023-01-09T15:14:09.184Z,0.90
2023-01-09T15:15:09.169Z,0.90
2023-01-09T15:16:09.249Z,0.80
2023-01-09T15:17:09.158Z,0.90
2023-01-09T15:18:09.204Z,1.00
2023-01-09T15:19:09.130Z,0.90
2023-01-09T15:20:09.150Z,1.00
2023-01-09T15:21:09.124Z,0.90
2023-01-09T15:22:09.101Z,1.10
2023-01-09T15:23:09.088Z,1.00
2023-01-09T15:24:09.079Z,0.80
2023-01-09T15:25:09.068Z,1.10
2023-01-09T15:26:09.123Z,1.10
2023-01-09T15:27:09.044Z,0.60
2023-01-09T15:28:09.031Z,0.80
2023-01-09T15:29:09.026Z,1.00
2023-01-09T15:30:09.015Z,1.00
2023-01-09T15:31:09.018Z,0.80
2023-01-09T15:32:08.992Z,0.70
2023-01-09T15:33:08.978Z,0.90
2023-01-09T15:34:08.991Z,0.60
2023-01-09T15:35:08.961Z,0.90
2023-01-09T15:36:09.014Z,0.90
2023-01-09T15:37:09.055Z,1.00
2023-01-09T15:38:08.930Z,0.70
2023-01-09T15:39:08.919Z,0.90
2023-01-09T15:40:08.910Z,0.80
2023-01-09T15:41:08.915Z,1.00
2023-01-09T15:42:08.895Z,0.80
2023-01-09T15:43:08.878Z,0.70
2023-01-09T15:44:08.866Z,0.50
2023-01-09T15:45:08.856Z,1.70
2023-01-09T15:46:08.975Z,1.60
2023-01-09T15:47:08.857Z,1.40
2023-01-09T15:48:08.820Z,13.30
2023-01-09T15:49:08.811Z,24.40
2023-01-09T15:50:08.813Z,8.20
2023-01-09T15:51:08.803Z,1.40
2023-01-09T15:52:08.781Z,14.30
2023-01-09T15:53:08.777Z,6.70
2023-01-09T15:54:08.768Z,4.90
2023-01-09T15:55:08.750Z,4.90
2023-01-09T15:56:08.810Z,11.00
2023-01-09T15:57:08.727Z,4.10
2023-01-09T15:58:08.726Z,0.90
2023-01-09T15:59:08.709Z,2.10
2023-01-09T16:00:08.699Z,11.00
2023-01-09T16:01:08.714Z,4.50
2023-01-09T16:02:08.684Z,11.20
2023-01-09T16:03:08.664Z,7.20
2023-01-09T16:04:08.660Z,1.30
2023-01-09T16:05:08.716Z,1.20
2023-01-09T16:07:35.759Z,2.10
2023-01-09T16:08:34.100Z,2.80
2023-01-09T16:09:34.080Z,4.00
2023-01-09T16:10:34.072Z,4.30
2023-01-09T16:11:34.073Z,1.40
2023-01-09T16:12:34.061Z,1.70
2023-01-09T16:13:34.084Z,1.10
2023-01-09T16:14:34.036Z,0.70
2023-01-09T16:15:34.016Z,0.60
2023-01-09T16:16:34.087Z,0.80
2023-01-09T16:17:33.995Z,0.60
2023-01-09T16:18:33.985Z,0.60
2023-01-09T16:19:34.052Z,0.60
2023-01-09T16:20:33.969Z,0.60
2023-01-09T16:21:33.973Z,1.10
2023-01-09T16:22:33.948Z,1.10
2023-01-09T16:23:33.951Z,0.50
2023-01-09T16:24:33.929Z,0.60
2023-01-09T16:25:34.046Z,0.70
2023-01-09T16:26:33.930Z,1.00
2023-01-09T16:27:33.917Z,1.10
2023-01-09T16:28:33.897Z,1.90
2023-01-09T16:29:33.891Z,1.90
2023-01-09T16:30:33.876Z,1.50
2023-01-09T16:31:33.885Z,1.00
2023-01-09T16:32:33.849Z,1.10
2023-01-09T16:33:33.842Z,0.80
2023-01-09T16:34:33.843Z,0.60
2023-01-09T16:35:33.830Z,0.60
2023-01-09T16:36:33.881Z,0.70
2023-01-09T16:37:33.851Z,0.80
2023-01-09T16:38:33.788Z,0.80
2023-01-09T16:39:33.868Z,0.90
2023-01-09T16:40:33.779Z,1.00
2023-01-09T16:41:33.760Z,2.10
2023-01-09T16:42:33.767Z,4.80
2023-01-09T16:43:33.749Z,2.50
2023-01-09T16:44:33.740Z,2.30
2023-01-09T16:45:34.766Z,2.60
2023-01-09T16:46:34.245Z,1.50
2023-01-09T16:47:33.764Z,3.00
2023-01-09T16:48:56.912Z,4.30
2023-01-09T16:49:37.197Z,2.50
2023-01-09T16:50:33.667Z,2.40
2023-01-09T16:51:33.675Z,3.30
2023-01-09T16:52:33.834Z,3.60
2023-01-09T16:53:33.735Z,3.10
2023-01-09T16:54:33.629Z,2.40
2023-01-09T16:55:33.642Z,2.30
2023-01-09T16:56:50.719Z,1.90
2023-01-09T16:57:37.865Z,1.80
2023-01-09T16:58:45.608Z,2.30
2023-01-09T16:59:48.867Z,4.30
2023-01-09T17:00:34.678Z,2.40
2023-01-09T17:01:33.616Z,2.40
2023-01-09T17:02:33.595Z,2.40
2023-01-09T17:03:33.533Z,2.20
2023-01-09T17:04:33.519Z,2.10
2023-01-09T17:05:33.505Z,2.40
2023-01-09T17:06:33.507Z,2.40
2023-01-09T17:07:33.520Z,1.80
2023-01-09T17:08:33.493Z,1.80
2023-01-09T17:09:33.478Z,2.40
2023-01-09T17:10:33.473Z,4.20
2023-01-09T17:11:33.484Z,5.80
2023-01-09T17:12:33.447Z,3.80
2023-01-09T17:13:33.421Z,2.90
2023-01-09T17:14:33.413Z,2.20
2023-01-09T17:15:33.408Z,2.80
2023-01-09T17:16:33.397Z,2.20
2023-01-09T17:17:33.393Z,2.40
2023-01-09T17:18:33.368Z,1.70
2023-01-09T17:19:33.355Z,2.10
2023-01-09T17:20:33.379Z,1.30
2023-01-09T17:21:34.320Z,1.40
2023-01-09T17:22:33.332Z,1.60
2023-01-09T17:23:33.317Z,1.20
2023-01-09T17:24:33.301Z,1.30
2023-01-09T17:25:33.293Z,1.10
2023-01-09T17:26:33.282Z,1.10
2023-01-09T17:27:33.309Z,1.30
2023-01-09T17:28:33.264Z,1.40
2023-01-09T17:29:33.254Z,1.50
2023-01-09T17:30:33.313Z,1.80
2023-01-09T17:31:57.836Z,1.80
2023-01-09T17:32:43.777Z,1.80
2023-01-09T17:35:05.651Z,1.90
2023-01-09T17:36:05.634Z,2.10
2023-01-09T17:37:05.743Z,3.20
2023-01-09T17:38:05.618Z,2.60
2023-01-09T17:39:05.590Z,2.40
2023-01-09T17:40:05.567Z,3.00
2023-01-09T17:41:05.577Z,2.30
2023-01-09T17:42:05.586Z,2.20
2023-01-09T17:43:05.570Z,2.40
2023-01-09T17:44:05.566Z,2.40
2023-01-09T17:45:05.526Z,2.20
2023-01-09T17:46:05.704Z,5.00
2023-01-09T17:47:05.521Z,18.90
2023-01-09T17:48:05.514Z,6.10
2023-01-09T17:49:05.495Z,10.20
2023-01-09T17:50:05.476Z,67.40
2023-01-09T17:51:05.532Z,45.90
2023-01-09T17:52:05.497Z,13.20
2023-01-09T17:53:05.520Z,26.80
2023-01-09T17:54:05.433Z,16.50
2023-01-09T17:55:12.245Z,8.70
2023-01-09T17:56:05.427Z,5.40
2023-01-09T17:57:05.400Z,5.70
2023-01-09T17:58:05.408Z,8.40
2023-01-09T17:59:05.510Z,8.30
2023-01-09T18:00:05.449Z,9.00
2023-01-09T18:01:05.409Z,10.00
2023-01-09T18:02:05.509Z,8.70
2023-01-09T18:03:05.365Z,7.90
2023-01-09T18:04:05.327Z,7.80
2023-01-09T18:05:05.317Z,7.30
2023-01-09T18:06:05.309Z,6.50
2023-01-09T18:07:05.315Z,8.00
2023-01-09T18:08:05.297Z,10.90
2023-01-09T18:09:05.279Z,9.40
2023-01-09T18:10:05.261Z,8.90
2023-01-09T18:11:05.278Z,7.70
2023-01-09T18:12:05.283Z,12.10
2023-01-09T18:13:05.249Z,9.70
2023-01-09T18:14:05.234Z,8.70
2023-01-09T18:15:05.234Z,7.50
2023-01-09T18:16:05.313Z,8.00
2023-01-09T18:17:05.216Z,9.80
2023-01-09T18:18:05.242Z,15.50
2023-01-09T18:19:05.185Z,15.60
2023-01-09T18:20:05.181Z,10.30
2023-01-09T18:21:05.163Z,10.30
2023-01-09T18:22:05.156Z,10.10
2023-01-09T18:23:05.151Z,8.10
2023-01-09T18:24:05.173Z,7.80
2023-01-09T18:25:05.139Z,7.40
2023-01-09T18:26:05.163Z,6.30
2023-01-09T18:27:05.123Z,8.80
2023-01-09T18:28:05.131Z,9.40
2023-01-09T18:29:05.106Z,9.70
2023-01-09T18:30:05.642Z,9.00
2023-01-09T18:31:05.076Z,9.50
2023-01-09T18:32:05.102Z,9.00
2023-01-09T18:33:05.047Z,10.30
2023-01-09T18:34:05.042Z,11.00
2023-01-09T18:35:05.030Z,11.50
2023-01-09T18:36:05.020Z,11.50
2023-01-09T18:37:05.087Z,9.40
2023-01-09T18:38:04.995Z,10.30
2023-01-09T18:39:04.996Z,9.80
2023-01-09T18:40:04.977Z,8.30
2023-01-09T18:41:04.969Z,7.10
2023-01-09T18:42:04.948Z,7.90
2023-01-09T18:43:04.962Z,7.10
2023-01-09T18:44:04.940Z,6.30
2023-01-09T18:45:04.924Z,6.10
2023-01-09T18:46:05.052Z,5.50
2023-01-09T18:47:04.917Z,5.20
2023-01-09T18:48:04.888Z,5.70
2023-01-09T18:49:04.884Z,6.10
2023-01-09T18:50:04.902Z,6.70
2023-01-09T18:51:04.858Z,6.40
2023-01-09T18:52:07.372Z,5.90
2023-01-09T18:53:04.832Z,6.90
2023-01-09T18:54:04.837Z,7.60
2023-01-09T18:55:04.855Z,5.80
2023-01-09T18:56:04.877Z,6.80
2023-01-09T18:57:05.747Z,5.90
2023-01-09T18:58:04.779Z,6.00
2023-01-09T18:59:04.894Z,6.10
2023-01-09T19:00:04.761Z,5.80
2023-01-09T19:01:04.768Z,5.80
2023-01-09T19:02:04.736Z,6.00
2023-01-09T19:03:04.747Z,6.10
2023-01-09T19:04:04.807Z,6.00
2023-01-09T19:05:04.705Z,5.70
2023-01-09T19:06:04.698Z,6.60
2023-01-09T19:07:04.680Z,5.40
2023-01-09T19:08:04.796Z,5.40
2023-01-09T19:09:04.679Z,6.00
2023-01-09T19:10:04.720Z,6.10
2023-01-09T19:11:04.646Z,5.90
2023-01-09T19:12:04.632Z,5.90
2023-01-09T19:13:04.622Z,5.40
2023-01-09T19:14:04.803Z,5.00
2023-01-09T19:15:04.596Z,7.30
2023-01-09T19:16:04.653Z,10.90
2023-01-09T19:17:04.580Z,9.40
2023-01-09T19:18:04.573Z,9.80
2023-01-09T19:19:04.581Z,10.10
2023-01-09T19:20:04.561Z,9.80
2023-01-09T19:21:04.539Z,8.50
2023-01-09T19:22:04.540Z,8.60
2023-01-09T19:23:04.520Z,9.60
2023-01-09T19:24:04.527Z,9.60
2023-01-09T19:25:04.502Z,11.50
2023-01-09T19:26:04.490Z,17.50
2023-01-09T19:27:04.479Z,18.10
2023-01-09T19:28:04.475Z,14.70
2023-01-09T19:29:04.479Z,15.50
2023-01-09T19:30:04.463Z,16.00
2023-01-09T19:31:04.451Z,19.50
2023-01-09T19:32:04.432Z,18.80
2023-01-09T19:33:04.436Z,16.20
2023-01-09T19:34:04.423Z,16.30
2023-01-09T19:35:04.411Z,15.00
2023-01-09T19:36:04.388Z,10.90
2023-01-09T19:37:04.453Z,11.80
2023-01-09T19:38:04.364Z,11.30
2023-01-09T19:39:04.382Z,12.60
2023-01-09T19:40:04.352Z,12.50
2023-01-09T19:41:04.360Z,11.30
2023-01-09T19:42:04.328Z,10.10
2023-01-09T19:43:04.321Z,10.10
2023-01-09T19:44:04.319Z,10.90
2023-01-09T19:45:04.299Z,13.10
2023-01-09T19:46:04.377Z,11.30
2023-01-09T19:47:04.284Z,10.70
2023-01-09T19:48:04.284Z,10.60
2023-01-09T19:49:04.251Z,9.80
2023-01-09T19:50:05.270Z,8.00
2023-01-09T19:51:04.236Z,8.10
2023-01-09T19:52:04.224Z,8.70
2023-01-09T19:53:04.211Z,10.50
2023-01-09T19:54:06.790Z,10.40
2023-01-09T19:55:04.207Z,8.70
2023-01-09T19:56:04.188Z,11.00
2023-01-09T19:57:04.173Z,12.20
2023-01-09T19:58:04.165Z,5.70
2023-01-09T19:59:04.166Z,7.60
2023-01-09T20:00:04.174Z,9.00
2023-01-09T20:01:04.191Z,8.90
2023-01-09T20:02:04.172Z,8.40
2023-01-09T20:03:04.110Z,7.50
2023-01-09T20:04:04.111Z,6.30
2023-01-09T20:05:04.123Z,6.80
2023-01-09T20:06:04.109Z,6.10
2023-01-09T20:07:04.078Z,7.20
2023-01-09T20:08:04.102Z,8.70
2023-01-09T20:09:04.109Z,10.60
2023-01-09T20:10:04.075Z,8.80
2023-01-09T20:11:04.040Z,10.00
2023-01-09T20:12:04.022Z,11.20
2023-01-09T20:13:04.018Z,11.50
2023-01-09T20:14:04.000Z,11.40
2023-01-09T20:15:04.008Z,11.60
2023-01-09T20:16:04.071Z,10.30
2023-01-09T20:17:03.974Z,9.10
2023-01-09T20:18:03.960Z,8.20
2023-01-09T20:19:03.952Z,8.00
2023-01-09T20:20:03.954Z,7.00
2023-01-09T20:21:03.948Z,7.20
2023-01-09T20:22:03.919Z,7.00